Time;durP1;ratioP1;P1;durP2;ratioP2;P2;SDS_P1;SDS_P2;PMS_P1;PMS_P2;Temp;Humidity;BMP_temperature;BMP_pressure;BME280_temperature;BME280_humidity;BME280_pressure;Samples;Min_cycle;Max_cycle;Signal;HPM_P1;HPM_P2
2021/12/30 00:02:18;;;;;;;0.90;0.40;;;24.10;99.90;;;;;;5019281;28;21074;-85
2021/12/30 00:04:51;;;;;;;2.72;0.73;;;24.30;99.90;;;;;;5014082;28;21669;-85
2021/12/30 00:07:21;;;;;;;1.23;0.60;;;24.20;99.90;;;;;;5026514;28;20193;-84
2021/12/30 00:09:52;;;;;;;2.00;0.60;;;24.20;99.90;;;;;;5029949;28;20185;-84
2021/12/30 00:12:23;;;;;;;1.65;0.68;;;24.40;99.90;;;;;;5030223;28;20197;-85
2021/12/30 00:14:54;;;;;;;1.67;0.50;;;24.60;99.90;;;;;;5029871;28;20247;-85
2021/12/30 00:17:24;;;;;;;1.48;0.50;;;24.70;99.90;;;;;;5030694;28;20687;-84
2021/12/30 00:19:57;;;;;;;3.38;0.50;;;24.80;99.90;;;;;;5031202;28;20193;-85
2021/12/30 00:22:28;;;;;;;1.80;0.50;;;24.80;99.90;;;;;;5026918;28;20198;-85
2021/12/30 00:24:59;;;;;;;2.22;0.50;;;24.90;99.90;;;;;;5000718;28;20307;-85
2021/12/30 00:27:30;;;;;;;1.50;0.50;;;24.90;99.90;;;;;;5031197;28;20205;-85
2021/12/30 00:30:00;;;;;;;2.40;0.40;;;24.90;99.90;;;;;;5026218;28;20640;-84
2021/12/30 00:32:31;;;;;;;4.30;0.50;;;25.00;99.90;;;;;;5027685;28;20221;-85
2021/12/30 00:35:04;;;;;;;2.35;0.40;;;25.00;99.90;;;;;;5031444;28;20251;-85
2021/12/30 00:37:34;;;;;;;2.80;0.60;;;25.10;99.90;;;;;;5029062;28;20328;-86
2021/12/30 00:40:06;;;;;;;2.75;0.50;;;25.10;99.90;;;;;;5026300;28;20323;-81
2021/12/30 00:42:37;;;;;;;2.40;0.90;;;25.10;99.90;;;;;;5015942;28;20213;-85
2021/12/30 00:45:08;;;;;;;0.95;0.40;;;25.30;99.90;;;;;;5012688;28;20275;-86
2021/12/30 00:47:39;;;;;;;2.47;0.50;;;25.40;99.90;;;;;;5023486;28;20229;-86
2021/12/30 00:50:12;;;;;;;1.95;0.50;;;25.50;99.90;;;;;;5027143;28;20259;-81
2021/12/30 00:52:43;;;;;;;2.35;0.40;;;25.50;99.90;;;;;;5027115;28;20267;-81
2021/12/30 00:55:14;;;;;;;2.17;0.60;;;25.60;99.90;;;;;;5028516;28;20255;-81
2021/12/30 00:57:45;;;;;;;0.90;0.43;;;25.60;99.90;;;;;;5011811;28;20209;-81
2021/12/30 01:00:18;;;;;;;0.90;0.30;;;25.70;99.90;;;;;;5022419;28;20276;-80
2021/12/30 01:02:49;;;;;;;0.43;0.28;;;25.60;99.90;;;;;;5027573;28;20205;-80
2021/12/30 01:05:22;;;;;;;3.22;0.50;;;25.60;99.90;;;;;;5029017;28;20273;-80
2021/12/30 01:07:53;;;;;;;1.42;0.40;;;25.80;99.90;;;;;;5027378;28;20194;-81
2021/12/30 01:10:25;;;;;;;3.28;0.57;;;25.80;99.90;;;;;;5023875;28;20201;-81
2021/12/30 01:13:00;;;;;;;3.30;0.40;;;25.90;99.90;;;;;;5026471;28;20189;-81
2021/12/30 01:15:34;;;;;;;1.60;0.43;;;26.00;99.90;;;;;;5029722;28;20204;-81
2021/12/30 01:20:51;;;;;;;2.30;0.40;;;25.90;99.90;;;;;;5015715;28;20194;-81
2021/12/30 01:23:22;;;;;;;1.77;0.52;;;25.80;99.90;;;;;;5028338;28;20208;-81
2021/12/30 01:25:52;;;;;;;2.10;0.50;;;25.90;99.90;;;;;;5027228;28;20266;-80
2021/12/30 01:28:23;;;;;;;3.53;0.60;;;26.10;99.90;;;;;;5027146;28;20206;-81
2021/12/30 01:30:54;;;;;;;1.73;0.40;;;26.10;99.90;;;;;;5028530;28;20244;-86
2021/12/30 01:33:25;;;;;;;2.30;0.50;;;26.00;99.90;;;;;;5015486;28;20251;-85
2021/12/30 01:35:58;;;;;;;1.27;0.52;;;25.90;99.90;;;;;;5025504;28;20208;-87
2021/12/30 01:38:29;;;;;;;1.52;0.40;;;25.80;99.90;;;;;;5030542;28;20682;-87
2021/12/30 01:41:01;;;;;;;2.90;0.70;;;25.80;99.90;;;;;;5014368;28;20201;-87
2021/12/30 01:43:33;;;;;;;1.83;0.60;;;25.90;99.90;;;;;;5031016;28;20248;-87
2021/12/30 01:46:04;;;;;;;1.50;0.43;;;25.90;99.90;;;;;;5030028;28;20220;-88
2021/12/30 01:48:35;;;;;;;1.73;0.47;;;25.90;99.90;;;;;;5029424;28;20290;-87
2021/12/30 01:51:23;;;;;;;2.58;0.52;;;25.90;99.90;;;;;;5019838;28;20197;-88
2021/12/30 01:53:53;;;;;;;3.50;0.50;;;25.90;99.90;;;;;;5021160;28;21692;-87
2021/12/30 01:56:26;;;;;;;2.58;0.40;;;26.00;99.90;;;;;;5022048;28;20245;-88
2021/12/30 01:58:58;;;;;;;0.73;0.30;;;26.00;99.90;;;;;;5019149;28;20219;-87
2021/12/30 02:01:29;;;;;;;2.45;0.43;;;26.00;99.90;;;;;;5020237;28;20287;-87
2021/12/30 02:04:01;;;;;;;1.23;0.47;;;26.00;99.90;;;;;;5020565;28;20217;-86
2021/12/30 02:06:34;;;;;;;4.50;0.68;;;26.00;99.90;;;;;;5030915;28;20248;-81
2021/12/30 02:09:05;;;;;;;1.25;0.45;;;26.10;99.90;;;;;;5034250;28;20197;-81
2021/12/30 02:11:36;;;;;;;1.60;0.45;;;26.10;99.90;;;;;;5011796;28;20542;-81
2021/12/30 02:14:07;;;;;;;3.10;0.50;;;26.10;99.90;;;;;;5012072;28;20576;-81
2021/12/30 02:16:38;;;;;;;1.95;0.47;;;26.10;99.90;;;;;;5011336;28;20256;-81
2021/12/30 02:19:11;;;;;;;3.72;0.47;;;26.20;99.90;;;;;;5011749;28;20343;-81
2021/12/30 02:21:44;;;;;;;1.17;0.40;;;26.20;99.90;;;;;;5011132;28;20224;-81
2021/12/30 02:24:14;;;;;;;3.05;0.40;;;26.20;99.90;;;;;;5016298;28;20212;-82
2021/12/30 02:26:45;;;;;;;3.00;0.40;;;26.20;99.90;;;;;;5015003;28;20307;-85
2021/12/30 02:29:16;;;;;;;2.75;0.50;;;26.20;99.90;;;;;;5012190;28;20193;-81
2021/12/30 02:31:47;;;;;;;1.52;0.40;;;26.30;99.90;;;;;;5009975;28;20854;-81
2021/12/30 02:34:19;;;;;;;3.20;0.50;;;26.30;99.90;;;;;;5012870;28;20201;-86
2021/12/30 02:36:52;;;;;;;1.00;0.40;;;26.30;99.90;;;;;;5007814;28;20229;-80
2021/12/30 02:39:23;;;;;;;0.80;0.30;;;26.40;99.90;;;;;;5011081;28;20202;-81
2021/12/30 02:41:54;;;;;;;4.57;0.50;;;26.30;99.90;;;;;;5010392;28;20388;-81
2021/12/30 02:44:25;;;;;;;3.25;0.50;;;26.30;99.90;;;;;;5010742;28;20194;-80
2021/12/30 02:46:57;;;;;;;2.85;0.40;;;26.30;99.90;;;;;;5010182;28;20780;-81
2021/12/30 02:49:27;;;;;;;1.73;0.40;;;26.40;99.90;;;;;;5013572;28;20209;-81
2021/12/30 02:52:00;;;;;;;0.57;0.30;;;26.40;99.90;;;;;;5014429;28;20197;-81
2021/12/30 02:54:30;;;;;;;2.03;0.32;;;26.30;99.90;;;;;;5013156;28;20282;-81
2021/12/30 02:57:02;;;;;;;2.92;0.45;;;26.30;99.90;;;;;;5012000;28;20204;-81
2021/12/30 02:59:32;;;;;;;0.63;0.30;;;26.30;99.90;;;;;;5011638;28;20205;-81
2021/12/30 03:02:03;;;;;;;1.80;0.40;;;26.40;99.90;;;;;;5013335;28;20704;-81
2021/12/30 03:04:35;;;;;;;0.93;0.40;;;26.20;99.90;;;;;;5010953;28;20748;-81
2021/12/30 03:07:07;;;;;;;3.65;0.68;;;26.10;99.90;;;;;;5014852;28;20585;-84
2021/12/30 03:09:39;;;;;;;2.65;0.30;;;26.20;99.90;;;;;;5017943;28;20194;-84
2021/12/30 03:12:10;;;;;;;1.55;0.40;;;26.20;99.90;;;;;;5007215;28;20418;-80
2021/12/30 03:14:44;;;;;;;2.15;0.68;;;26.10;99.90;;;;;;5009635;28;20198;-80
2021/12/30 03:17:14;;;;;;;1.55;0.60;;;26.20;99.90;;;;;;5013852;28;20210;-80
2021/12/30 03:19:45;;;;;;;1.23;0.30;;;26.30;99.90;;;;;;5010242;28;20201;-80
2021/12/30 03:22:18;;;;;;;1.65;0.43;;;26.30;99.90;;;;;;5012304;28;20282;-80
2021/12/30 03:24:48;;;;;;;1.30;0.30;;;26.40;99.90;;;;;;5011951;28;20629;-81
2021/12/30 03:27:19;;;;;;;1.95;0.50;;;26.40;99.90;;;;;;5007307;28;20315;-80
2021/12/30 03:29:50;;;;;;;2.85;0.40;;;26.50;99.90;;;;;;5011389;28;20225;-80
2021/12/30 03:32:20;;;;;;;1.90;0.40;;;26.40;99.90;;;;;;5011526;28;20198;-80
2021/12/30 03:34:51;;;;;;;1.52;0.43;;;26.50;99.90;;;;;;5016345;28;20213;-84
2021/12/30 03:37:24;;;;;;;1.65;0.30;;;26.40;99.90;;;;;;5024029;28;20488;-81
2021/12/30 03:39:55;;;;;;;1.38;0.30;;;26.30;99.90;;;;;;5019305;28;20205;-85
2021/12/30 03:42:25;;;;;;;2.33;0.40;;;26.40;99.90;;;;;;5032092;28;20205;-85
2021/12/30 03:44:57;;;;;;;0.57;0.30;;;26.50;99.90;;;;;;5030455;28;20208;-81
2021/12/30 03:47:28;;;;;;;1.65;0.40;;;26.50;99.90;;;;;;5025192;28;20233;-82
2021/12/30 03:49:59;;;;;;;0.90;0.28;;;26.60;99.90;;;;;;5024997;28;20202;-81
2021/12/30 03:52:32;;;;;;;3.28;0.38;;;26.50;99.90;;;;;;5031057;28;20205;-81
2021/12/30 03:55:03;;;;;;;2.15;0.57;;;26.50;99.90;;;;;;5024041;28;20193;-81
2021/12/30 03:57:33;;;;;;;0.77;0.30;;;26.50;99.90;;;;;;5027009;28;20680;-83
2021/12/30 04:00:05;;;;;;;2.88;0.60;;;26.60;99.90;;;;;;5028795;28;20206;-81
2021/12/30 04:02:35;;;;;;;1.88;0.38;;;26.60;99.90;;;;;;5028756;28;20478;-81
2021/12/30 04:05:07;;;;;;;1.65;0.40;;;26.60;99.90;;;;;;5029301;28;20205;-81
2021/12/30 04:07:40;;;;;;;0.75;0.22;;;26.50;99.90;;;;;;5038500;28;20259;-81
2021/12/30 04:10:13;;;;;;;1.60;0.40;;;26.50;99.90;;;;;;5031696;28;20683;-81
2021/12/30 04:12:47;;;;;;;1.02;0.40;;;26.60;99.90;;;;;;5023380;28;20277;-81
2021/12/30 04:15:18;;;;;;;2.78;0.40;;;26.60;99.90;;;;;;5021161;28;20205;-83
2021/12/30 04:17:48;;;;;;;1.05;0.20;;;26.70;99.90;;;;;;5030864;28;20260;-84
2021/12/30 04:20:20;;;;;;;1.40;0.22;;;26.70;99.90;;;;;;5029818;28;20197;-84
2021/12/30 04:22:52;;;;;;;1.25;0.30;;;26.70;99.90;;;;;;5031006;28;20198;-84
2021/12/30 04:25:23;;;;;;;1.85;0.30;;;26.60;99.90;;;;;;5032875;28;20557;-84
2021/12/30 04:27:54;;;;;;;1.55;0.30;;;26.50;99.90;;;;;;5024633;28;20273;-84
2021/12/30 04:30:26;;;;;;;1.50;0.30;;;26.40;99.90;;;;;;5024443;28;20543;-80
2021/12/30 04:32:57;;;;;;;1.17;0.30;;;26.40;99.90;;;;;;5031084;28;20664;-80
2021/12/30 04:35:28;;;;;;;1.27;0.20;;;26.50;99.90;;;;;;5026631;28;20194;-80
2021/12/30 04:38:01;;;;;;;1.52;0.40;;;26.60;99.90;;;;;;5030157;28;20209;-80
2021/12/30 04:40:31;;;;;;;2.30;0.32;;;26.50;99.90;;;;;;5028662;28;20216;-79
2021/12/30 04:43:02;;;;;;;0.75;0.22;;;26.70;99.90;;;;;;5043037;28;20205;-80
2021/12/30 04:45:33;;;;;;;1.58;0.30;;;26.80;99.90;;;;;;5030977;28;20201;-80
2021/12/30 04:48:03;;;;;;;0.82;0.20;;;26.90;99.90;;;;;;5013010;28;20755;-81
2021/12/30 04:50:34;;;;;;;2.08;0.40;;;27.00;99.90;;;;;;5029937;28;20255;-80
2021/12/30 04:53:07;;;;;;;1.30;0.28;;;27.10;99.90;;;;;;5030780;28;20688;-80
2021/12/30 04:55:37;;;;;;;2.35;0.40;;;27.30;99.90;;;;;;5026200;28;20201;-79
2021/12/30 04:58:08;;;;;;;2.20;0.32;;;27.30;99.90;;;;;;5033113;28;20243;-81
2021/12/30 05:00:39;;;;;;;1.73;0.40;;;27.40;99.90;;;;;;5043628;28;20572;-80
2021/12/30 05:03:12;;;;;;;1.80;0.32;;;27.50;99.90;;;;;;5026622;28;20197;-80
2021/12/30 05:05:44;;;;;;;1.85;0.30;;;27.60;99.90;;;;;;5031182;28;20208;-79
2021/12/30 05:08:18;;;;;;;0.90;0.30;;;27.70;99.90;;;;;;5029839;28;20575;-80
2021/12/30 05:10:49;;;;;;;0.45;0.25;;;27.60;99.90;;;;;;5028949;28;20259;-80
2021/12/30 05:13:20;;;;;;;1.60;0.30;;;27.80;99.90;;;;;;5029433;28;20205;-80
2021/12/30 05:15:51;;;;;;;2.97;0.47;;;28.00;99.90;;;;;;5039658;28;20200;-80
2021/12/30 05:18:29;;;;;;;1.25;0.47;;;28.00;99.90;;;;;;5025927;28;20630;-81
2021/12/30 05:21:01;;;;;;;1.23;0.30;;;28.10;99.90;;;;;;5020599;28;20296;-84
2021/12/30 05:23:35;;;;;;;2.78;0.47;;;28.10;99.90;;;;;;5027639;28;20193;-85
2021/12/30 05:26:06;;;;;;;0.70;0.30;;;28.10;99.90;;;;;;5030735;28;20198;-84
2021/12/30 05:28:37;;;;;;;1.90;0.40;;;28.20;99.90;;;;;;5025118;28;20216;-80
2021/12/30 05:31:08;;;;;;;1.52;0.32;;;28.40;99.90;;;;;;5021231;28;20198;-80
2021/12/30 05:33:39;;;;;;;1.67;0.43;;;28.40;99.90;;;;;;5036895;28;20197;-80
2021/12/30 05:36:10;;;;;;;1.38;0.40;;;28.50;99.90;;;;;;5024596;28;20185;-80
2021/12/30 05:38:42;;;;;;;1.10;0.40;;;28.70;99.90;;;;;;5028895;28;20205;-80
2021/12/30 05:41:13;;;;;;;1.50;0.30;;;28.90;99.90;;;;;;5028484;28;20205;-80
2021/12/30 05:43:44;;;;;;;1.60;0.40;;;28.80;99.90;;;;;;5032929;28;20679;-80
2021/12/30 05:46:15;;;;;;;1.13;0.30;;;28.80;99.90;;;;;;5033263;28;20202;-80
2021/12/30 05:48:46;;;;;;;2.55;0.43;;;28.90;99.90;;;;;;5032057;28;20237;-80
2021/12/30 05:51:16;;;;;;;1.30;0.30;;;29.10;99.90;;;;;;5043366;28;20201;-80
2021/12/30 05:53:49;;;;;;;1.40;0.40;;;29.20;99.90;;;;;;5033269;28;20724;-80
2021/12/30 05:56:19;;;;;;;4.07;0.60;;;29.50;99.90;;;;;;5031782;28;20664;-81
2021/12/30 05:58:50;;;;;;;2.15;0.40;;;29.50;99.90;;;;;;5032500;28;20244;-80
2021/12/30 06:01:21;;;;;;;1.25;0.20;;;29.90;99.90;;;;;;5033683;28;20194;-81
2021/12/30 06:03:52;;;;;;;0.40;0.20;;;30.00;99.90;;;;;;5031461;28;20204;-80
2021/12/30 06:06:22;;;;;;;3.05;0.40;;;30.10;99.90;;;;;;5035235;28;20541;-80
2021/12/30 06:08:57;;;;;;;0.82;0.30;;;30.20;99.90;;;;;;5032376;28;20193;-80
2021/12/30 06:11:27;;;;;;;1.92;0.40;;;30.50;99.90;;;;;;5031688;28;20299;-80
2021/12/30 06:13:58;;;;;;;3.13;0.30;;;30.70;99.90;;;;;;5032492;28;20200;-82
2021/12/30 06:16:29;;;;;;;0.80;0.28;;;30.80;99.90;;;;;;5028305;28;20193;-85
2021/12/30 06:18:59;;;;;;;0.75;0.30;;;30.60;99.90;;;;;;5033396;28;20204;-85
2021/12/30 06:21:30;;;;;;;1.13;0.28;;;30.70;99.90;;;;;;5023498;28;20209;-85
2021/12/30 06:24:03;;;;;;;2.42;0.70;;;30.80;99.90;;;;;;5021578;28;21006;-80
2021/12/30 06:26:33;;;;;;;2.03;0.63;;;30.90;99.90;;;;;;5025862;28;20267;-80
2021/12/30 06:29:04;;;;;;;2.10;0.50;;;31.00;99.90;;;;;;5029555;28;20202;-80
2021/12/30 06:31:37;;;;;;;4.30;0.55;;;31.00;99.90;;;;;;5025299;28;20255;-80
2021/12/30 06:34:08;;;;;;;2.08;0.45;;;31.20;99.90;;;;;;5032468;28;20616;-80
2021/12/30 06:36:39;;;;;;;1.48;0.40;;;31.40;99.90;;;;;;5031729;28;20201;-80
2021/12/30 06:39:11;;;;;;;1.77;0.47;;;31.60;99.90;;;;;;5031337;28;20197;-81
2021/12/30 06:41:42;;;;;;;1.80;0.30;;;31.60;99.90;;;;;;5042984;28;20197;-80
2021/12/30 06:44:13;;;;;;;1.77;0.47;;;31.80;99.90;;;;;;5032226;28;20197;-80
2021/12/30 06:46:52;;;;;;;1.27;0.50;;;32.30;99.90;;;;;;5033834;28;20221;-80
2021/12/30 06:49:23;;;;;;;1.73;0.50;;;32.50;99.90;;;;;;5030944;28;20221;-81
2021/12/30 06:51:54;;;;;;;0.60;0.20;;;32.60;99.90;;;;;;5031753;28;20194;-80
2021/12/30 06:54:26;;;;;;;1.42;0.52;;;32.80;99.90;;;;;;5030892;28;20197;-81
2021/12/30 06:56:59;;;;;;;1.80;0.50;;;33.20;99.90;;;;;;5031665;28;20681;-82
2021/12/30 06:59:30;;;;;;;1.63;0.50;;;33.30;99.90;;;;;;5033944;28;20201;-82
2021/12/30 07:02:01;;;;;;;2.58;0.50;;;33.80;99.90;;;;;;5031728;28;20645;-82
2021/12/30 07:04:31;;;;;;;1.80;0.50;;;34.00;99.90;;;;;;5032686;28;20244;-81
2021/12/30 07:07:02;;;;;;;1.77;0.52;;;34.10;98.90;;;;;;5031316;28;20229;-81
2021/12/30 07:09:35;;;;;;;2.75;0.40;;;34.10;98.30;;;;;;5031028;28;20209;-81
2021/12/30 07:12:06;;;;;;;1.33;0.38;;;34.40;97.60;;;;;;5032325;28;20275;-81
2021/12/30 07:14:36;;;;;;;1.25;0.30;;;34.60;97.20;;;;;;5032011;28;20611;-81
2021/12/30 07:17:07;;;;;;;1.75;0.30;;;34.90;96.10;;;;;;5029828;28;20193;-81
2021/12/30 07:19:38;;;;;;;1.33;0.30;;;35.00;95.40;;;;;;5031849;28;20684;-80
2021/12/30 07:22:09;;;;;;;1.38;0.40;;;34.90;94.60;;;;;;5032646;28;20209;-80
2021/12/30 07:24:42;;;;;;;0.57;0.30;;;34.70;94.70;;;;;;5032904;28;20243;-86
2021/12/30 07:27:14;;;;;;;2.35;0.35;;;34.80;94.60;;;;;;5028318;28;20275;-85
2021/12/30 07:29:45;;;;;;;1.83;0.57;;;34.80;93.60;;;;;;5032893;28;20197;-81
2021/12/30 07:32:15;;;;;;;3.05;0.50;;;35.00;93.30;;;;;;5027553;28;20201;-80
2021/12/30 07:34:46;;;;;;;0.98;0.32;;;34.90;93.70;;;;;;5029629;28;20205;-80
2021/12/30 07:37:17;;;;;;;1.55;0.38;;;34.90;92.20;;;;;;5032764;28;20205;-80
2021/12/30 07:39:51;;;;;;;2.42;0.50;;;35.00;92.60;;;;;;5029247;28;20205;-80
2021/12/30 07:42:21;;;;;;;1.75;0.40;;;35.20;92.30;;;;;;5030179;28;20284;-80
2021/12/30 07:44:52;;;;;;;1.02;0.30;;;35.00;92.30;;;;;;5028890;28;20198;-81
2021/12/30 07:47:22;;;;;;;0.90;0.22;;;34.80;92.20;;;;;;5028561;28;20225;-80
2021/12/30 07:49:53;;;;;;;1.98;0.45;;;34.70;92.20;;;;;;5033139;28;20255;-80
2021/12/30 07:52:24;;;;;;;0.63;0.30;;;34.50;92.50;;;;;;5030654;28;20227;-80
2021/12/30 07:54:56;;;;;;;1.60;0.38;;;34.30;92.40;;;;;;5027818;28;20197;-79
2021/12/30 07:57:27;;;;;;;1.05;0.35;;;33.90;92.70;;;;;;5028905;28;20208;-80
2021/12/30 07:59:58;;;;;;;2.28;0.47;;;33.90;93.40;;;;;;5030248;28;20652;-80
2021/12/30 08:02:28;;;;;;;1.52;0.40;;;33.70;94.10;;;;;;5026425;28;20283;-84
2021/12/30 08:04:59;;;;;;;0.60;0.32;;;33.50;94.10;;;;;;5014157;28;20358;-80
2021/12/30 08:07:30;;;;;;;1.65;0.50;;;33.20;94.20;;;;;;5024178;28;20598;-80
2021/12/30 08:10:03;;;;;;;0.68;0.43;;;32.90;95.30;;;;;;5026465;28;20703;-80
2021/12/30 08:12:33;;;;;;;1.98;0.60;;;32.30;96.40;;;;;;5029889;28;20208;-79
2021/12/30 08:15:06;;;;;;;1.42;0.50;;;31.80;97.50;;;;;;5028690;28;20201;-80
2021/12/30 08:17:40;;;;;;;2.35;0.40;;;31.30;98.90;;;;;;5029259;28;20284;-80
2021/12/30 08:20:13;;;;;;;2.15;0.60;;;30.50;99.90;;;;;;5030599;28;20193;-80
2021/12/30 08:22:44;;;;;;;3.35;0.63;;;30.10;99.90;;;;;;5025489;28;20200;-80
2021/12/30 08:25:20;;;;;;;1.67;0.50;;;29.40;99.90;;;;;;5028847;28;20201;-80
2021/12/30 08:27:51;;;;;;;0.85;0.28;;;29.00;99.90;;;;;;5028505;28;20235;-80
2021/12/30 08:30:23;;;;;;;1.85;0.30;;;28.50;99.90;;;;;;5019645;28;20251;-80
2021/12/30 08:32:54;;;;;;;1.83;0.50;;;28.10;99.90;;;;;;5028576;28;20194;-80
2021/12/30 08:35:25;;;;;;;2.72;0.43;;;27.70;99.90;;;;;;5030702;28;20206;-84
2021/12/30 08:37:56;;;;;;;0.63;0.40;;;27.50;99.90;;;;;;5022317;28;20711;-84
2021/12/30 08:40:30;;;;;;;1.55;0.57;;;27.20;99.90;;;;;;5033008;28;20638;-84
2021/12/30 08:43:00;;;;;;;1.55;0.55;;;27.10;99.90;;;;;;5015642;28;20251;-79
2021/12/30 08:45:31;;;;;;;1.48;0.40;;;26.80;99.90;;;;;;5028841;28;20193;-79
2021/12/30 08:48:02;;;;;;;1.50;0.40;;;26.60;99.90;;;;;;5028207;28;20719;-80
2021/12/30 08:50:32;;;;;;;2.10;0.55;;;26.40;99.90;;;;;;5013716;28;20209;-79
2021/12/30 08:53:03;;;;;;;1.85;0.50;;;26.30;99.90;;;;;;5029722;28;20773;-79
2021/12/30 08:55:36;;;;;;;3.15;0.47;;;26.10;99.90;;;;;;5028725;28;20618;-79
2021/12/30 08:58:07;;;;;;;1.17;0.47;;;26.00;99.90;;;;;;5030963;28;20645;-79
2021/12/30 09:00:42;;;;;;;4.00;0.40;;;26.00;99.90;;;;;;5030591;28;20205;-79
2021/12/30 09:03:14;;;;;;;2.47;0.57;;;25.80;99.90;;;;;;5028903;28;20288;-79
2021/12/30 09:05:45;;;;;;;2.25;0.52;;;25.70;99.90;;;;;;5030789;28;20201;-79
2021/12/30 09:08:15;;;;;;;2.78;0.40;;;25.70;99.90;;;;;;5029843;28;20274;-80
2021/12/30 09:10:49;;;;;;;1.85;0.50;;;25.50;99.90;;;;;;5029207;28;20209;-80
2021/12/30 09:13:21;;;;;;;1.80;0.40;;;25.40;99.90;;;;;;5024753;28;20259;-80
2021/12/30 09:15:51;;;;;;;1.48;0.40;;;25.40;99.90;;;;;;5026805;28;20209;-80
2021/12/30 09:18:23;;;;;;;2.13;0.52;;;25.40;99.90;;;;;;5028819;28;20201;-80
2021/12/30 09:20:54;;;;;;;2.00;0.45;;;25.30;99.90;;;;;;5028429;28;20569;-80
2021/12/30 09:23:25;;;;;;;4.72;0.70;;;25.30;99.90;;;;;;5029506;28;20201;-80
2021/12/30 09:25:57;;;;;;;2.90;0.40;;;25.20;99.90;;;;;;5028049;28;20189;-80
2021/12/30 09:28:28;;;;;;;1.55;0.45;;;25.20;99.90;;;;;;5029665;28;20225;-80
2021/12/30 09:30:59;;;;;;;1.20;0.30;;;25.20;99.90;;;;;;5030305;28;20201;-80
2021/12/30 09:33:29;;;;;;;2.33;0.50;;;25.10;99.90;;;;;;5010292;28;20571;-80
2021/12/30 09:36:01;;;;;;;3.83;0.73;;;25.00;99.90;;;;;;5010139;28;20197;-80
2021/12/30 09:38:32;;;;;;;2.65;0.68;;;25.00;99.90;;;;;;5010365;28;20229;-80
2021/12/30 09:41:08;;;;;;;3.75;0.70;;;25.00;99.90;;;;;;5027057;28;20198;-83
2021/12/30 09:43:38;;;;;;;3.90;0.55;;;24.90;99.90;;;;;;5029438;28;20207;-80
2021/12/30 09:46:09;;;;;;;1.35;0.60;;;24.90;99.90;;;;;;5028295;28;20205;-80
2021/12/30 09:48:40;;;;;;;4.72;0.60;;;24.90;99.90;;;;;;5030388;28;20746;-80
2021/12/30 09:51:11;;;;;;;1.10;0.50;;;24.80;99.90;;;;;;5030024;28;20198;-80
2021/12/30 09:53:42;;;;;;;1.70;0.50;;;24.80;99.90;;;;;;5030619;28;20202;-80
2021/12/30 09:56:15;;;;;;;2.03;0.47;;;24.80;99.90;;;;;;5028608;28;20618;-80
2021/12/30 09:58:46;;;;;;;1.88;0.60;;;24.70;99.90;;;;;;5028894;28;20198;-80
2021/12/30 10:01:17;;;;;;;1.67;0.40;;;24.60;99.90;;;;;;5019340;28;20198;-80
2021/12/30 10:03:50;;;;;;;3.55;0.50;;;24.60;99.90;;;;;;5029142;28;20201;-80
2021/12/30 10:06:22;;;;;;;1.48;0.40;;;24.60;99.90;;;;;;5026752;28;20213;-80
2021/12/30 10:09:00;;;;;;;2.50;0.65;;;24.50;99.90;;;;;;5028986;28;20221;-80
2021/12/30 10:11:33;;;;;;;4.07;0.50;;;24.50;99.90;;;;;;5024750;28;20204;-80
2021/12/30 10:14:04;;;;;;;1.40;0.43;;;24.50;99.90;;;;;;5029125;28;20194;-80
2021/12/30 10:16:34;;;;;;;2.28;0.52;;;24.40;99.90;;;;;;5028379;28;20208;-80
2021/12/30 10:19:06;;;;;;;4.65;0.60;;;24.40;99.90;;;;;;5028391;28;20202;-80
2021/12/30 10:21:39;;;;;;;2.75;0.77;;;24.30;99.90;;;;;;5035401;28;20250;-80
2021/12/30 10:24:11;;;;;;;1.30;0.40;;;24.30;99.90;;;;;;5033181;28;20193;-80
2021/12/30 10:26:55;;;;;;;3.13;0.52;;;24.30;99.90;;;;;;5014340;28;20202;-80
2021/12/30 10:29:26;;;;;;;3.40;0.68;;;24.30;99.90;;;;;;5023859;28;20229;-81
2021/12/30 10:31:57;;;;;;;3.85;0.50;;;24.30;99.90;;;;;;5032241;28;20247;-81
2021/12/30 10:34:28;;;;;;;1.90;0.38;;;24.20;99.90;;;;;;5017987;28;20197;-81
2021/12/30 10:36:59;;;;;;;2.92;0.73;;;24.30;99.90;;;;;;5032656;28;20272;-81
2021/12/30 10:39:32;;;;;;;3.70;0.68;;;24.30;99.90;;;;;;5040252;28;20193;-81
2021/12/30 10:42:21;;;;;;;2.35;0.60;;;24.20;99.90;;;;;;5033149;28;20193;-80
2021/12/30 10:44:53;;;;;;;2.60;0.50;;;24.10;99.90;;;;;;5029292;28;20627;-80
2021/12/30 10:47:25;;;;;;;2.85;0.60;;;24.10;99.90;;;;;;5027354;28;20226;-80
2021/12/30 10:50:00;;;;;;;2.75;0.75;;;24.10;99.90;;;;;;5031071;28;20244;-85
2021/12/30 10:52:32;;;;;;;2.83;0.75;;;24.10;99.90;;;;;;5019586;28;20239;-81
2021/12/30 10:55:11;;;;;;;1.70;0.47;;;24.10;99.90;;;;;;5017731;28;20189;-80
2021/12/30 10:57:44;;;;;;;1.98;0.55;;;24.10;99.90;;;;;;5032357;28;20208;-82
2021/12/30 11:00:27;;;;;;;2.55;0.50;;;24.10;99.90;;;;;;5032829;28;20661;-80
2021/12/30 11:02:58;;;;;;;5.15;0.45;;;24.10;99.90;;;;;;5031504;28;20288;-80
2021/12/30 11:05:29;;;;;;;4.78;0.55;;;24.00;99.90;;;;;;5029734;28;20197;-80
2021/12/30 11:08:00;;;;;;;3.10;0.60;;;23.90;99.90;;;;;;5030160;28;20193;-80
2021/12/30 11:10:38;;;;;;;2.97;0.60;;;23.90;99.90;;;;;;5013516;28;20522;-81
2021/12/30 11:13:17;;;;;;;3.35;0.60;;;23.90;99.90;;;;;;5027577;28;20193;-81
2021/12/30 11:15:48;;;;;;;3.13;0.50;;;23.90;99.90;;;;;;5031624;28;20193;-81
2021/12/30 11:18:20;;;;;;;3.05;0.57;;;23.80;99.90;;;;;;5030720;28;20213;-81
2021/12/30 11:20:51;;;;;;;1.40;0.47;;;23.80;99.90;;;;;;5031623;28;20576;-81
2021/12/30 11:23:22;;;;;;;3.83;0.63;;;23.80;99.90;;;;;;5030051;28;20350;-81
2021/12/30 11:25:54;;;;;;;3.08;0.70;;;23.70;99.90;;;;;;5023773;28;20582;-81
2021/12/30 11:28:27;;;;;;;2.35;0.40;;;23.80;99.90;;;;;;5030883;28;20699;-81
2021/12/30 11:30:57;;;;;;;2.55;0.43;;;23.70;99.90;;;;;;5029535;28;20596;-80
2021/12/30 11:33:28;;;;;;;2.90;0.63;;;23.70;99.90;;;;;;5030524;28;20208;-81
2021/12/30 11:36:01;;;;;;;1.67;0.40;;;23.80;99.90;;;;;;5029370;28;20201;-81
2021/12/30 11:38:32;;;;;;;4.13;0.60;;;23.70;99.90;;;;;;5027853;28;20205;-81
2021/12/30 11:41:03;;;;;;;2.70;0.68;;;23.70;99.90;;;;;;5029947;28;20664;-80
2021/12/30 11:43:48;;;;;;;4.38;0.60;;;23.70;99.90;;;;;;5032749;28;20574;-81
2021/12/30 11:46:43;;;;;;;2.83;0.65;;;23.70;99.90;;;;;;5034260;28;20216;-80
2021/12/30 11:49:16;;;;;;;2.47;0.45;;;23.70;99.90;;;;;;5025619;28;20316;-80
2021/12/30 11:51:49;;;;;;;2.47;0.40;;;23.70;99.90;;;;;;5030157;28;20603;-80
2021/12/30 11:54:37;;;;;;;2.55;0.50;;;23.70;99.90;;;;;;5030389;28;20194;-80
2021/12/30 11:57:29;;;;;;;2.53;0.63;;;23.60;99.90;;;;;;5029673;28;20197;-80
2021/12/30 12:00:25;;;;;;;2.03;0.50;;;23.60;99.90;;;;;;5032586;28;20228;-85
2021/12/30 12:03:02;;;;;;;2.80;0.47;;;23.60;99.90;;;;;;5031545;28;20698;-86
2021/12/30 12:05:50;;;;;;;2.85;0.50;;;23.50;99.90;;;;;;5032804;28;20301;-85
2021/12/30 12:08:20;;;;;;;2.08;0.60;;;23.60;99.90;;;;;;5024543;28;20201;-85
2021/12/30 12:11:16;;;;;;;1.75;0.50;;;23.50;99.90;;;;;;5033316;28;20189;-85
2021/12/30 12:13:48;;;;;;;1.77;0.50;;;23.50;99.90;;;;;;5020641;28;20193;-85
2021/12/30 12:16:58;;;;;;;2.80;0.68;;;23.40;99.90;;;;;;5025987;28;20976;-86
2021/12/30 12:19:40;;;;;;;2.53;0.60;;;23.40;99.90;;;;;;5012997;28;20202;-86
2021/12/30 12:22:28;;;;;;;4.35;0.60;;;23.40;99.90;;;;;;5052407;28;20659;-86
2021/12/30 12:25:11;;;;;;;1.65;0.43;;;23.40;99.90;;;;;;5019188;28;20193;-86
2021/12/30 12:27:45;;;;;;;3.65;0.70;;;23.30;99.90;;;;;;5013804;28;20229;-86
2021/12/30 12:30:28;;;;;;;2.28;0.60;;;23.20;99.90;;;;;;5031893;28;20595;-86
2021/12/30 12:33:02;;;;;;;2.08;0.50;;;23.30;99.90;;;;;;5030667;28;20197;-85
2021/12/30 12:35:35;;;;;;;4.60;0.90;;;23.30;99.90;;;;;;5031288;28;20299;-86
2021/12/30 12:38:09;;;;;;;2.83;0.60;;;23.30;99.90;;;;;;5028742;28;20197;-86
2021/12/30 12:40:45;;;;;;;3.53;0.70;;;23.20;99.90;;;;;;5011871;28;20247;-84
2021/12/30 12:43:19;;;;;;;2.85;0.80;;;23.20;99.90;;;;;;5019431;28;20197;-85
2021/12/30 12:46:01;;;;;;;1.40;0.50;;;23.20;99.90;;;;;;5030424;28;20192;-86
2021/12/30 12:48:43;;;;;;;2.80;0.60;;;23.20;99.90;;;;;;5030262;28;20225;-86
2021/12/30 12:51:28;;;;;;;2.58;0.55;;;23.20;99.90;;;;;;5019144;28;20552;-86
2021/12/30 12:54:06;;;;;;;2.05;0.50;;;23.20;99.90;;;;;;5014455;28;20190;-86
2021/12/30 12:56:40;;;;;;;2.63;0.60;;;23.20;99.90;;;;;;5039689;28;20211;-86
2021/12/30 12:59:15;;;;;;;3.40;0.55;;;23.10;99.90;;;;;;5030565;28;20193;-82
2021/12/30 13:01:47;;;;;;;3.08;0.68;;;23.10;99.90;;;;;;5023739;28;20196;-81
2021/12/30 13:04:20;;;;;;;1.35;0.50;;;23.10;99.90;;;;;;5026586;28;20271;-80
2021/12/30 13:06:51;;;;;;;3.90;0.57;;;23.10;99.90;;;;;;5029932;28;20197;-80
2021/12/30 13:09:23;;;;;;;2.25;0.50;;;23.00;99.90;;;;;;5027735;28;20266;-81
2021/12/30 13:11:58;;;;;;;1.77;0.47;;;23.00;99.90;;;;;;5038784;28;20197;-81
2021/12/30 13:14:30;;;;;;;3.05;0.55;;;23.00;99.90;;;;;;5033033;28;20587;-80
2021/12/30 13:17:03;;;;;;;2.45;0.52;;;22.90;99.90;;;;;;5028357;28;20201;-80
2021/12/30 13:19:38;;;;;;;1.27;0.55;;;22.90;99.90;;;;;;5029520;28;20201;-80